sensor_id;sensor_type;location;lat;lon;timestamp;P1;durP1;ratioP1;P2;durP2;ratioP2
15905;SDS011;8051;50.820;4.884;2022-08-07T00:01:31;21.70;;;20.67;;
15905;SDS011;8051;50.820;4.884;2022-08-07T00:03:59;23.97;;;22.83;;
15905;SDS011;8051;50.820;4.884;2022-08-07T00:06:26;23.50;;;22.40;;
15905;SDS011;8051;50.820;4.884;2022-08-07T00:08:53;26.67;;;25.07;;
15905;SDS011;8051;50.820;4.884;2022-08-07T00:11:19;27.03;;;25.73;;
15905;SDS011;8051;50.820;4.884;2022-08-07T00:13:46;27.87;;;26.57;;
15905;SDS011;8051;50.820;4.884;2022-08-07T00:16:13;28.20;;;26.70;;
15905;SDS011;8051;50.820;4.884;2022-08-07T00:18:40;29.77;;;28.17;;
15905;SDS011;8051;50.820;4.884;2022-08-07T00:21:08;30.87;;;29.33;;
15905;SDS011;8051;50.820;4.884;2022-08-07T00:23:36;30.43;;;29.00;;
15905;SDS011;8051;50.820;4.884;2022-08-07T00:26:05;34.47;;;32.53;;
15905;SDS011;8051;50.820;4.884;2022-08-07T00:28:36;35.67;;;34.03;;
15905;SDS011;8051;50.820;4.884;2022-08-07T00:31:04;35.97;;;34.30;;
15905;SDS011;8051;50.820;4.884;2022-08-07T00:33:33;37.80;;;35.90;;
15905;SDS011;8051;50.820;4.884;2022-08-07T00:36:00;39.10;;;36.80;;
15905;SDS011;8051;50.820;4.884;2022-08-07T00:38:29;38.07;;;36.37;;
15905;SDS011;8051;50.820;4.884;2022-08-07T00:40:58;36.43;;;34.73;;
15905;SDS011;8051;50.820;4.884;2022-08-07T00:43:25;35.73;;;33.93;;
15905;SDS011;8051;50.820;4.884;2022-08-07T00:45:52;35.50;;;33.50;;
15905;SDS011;8051;50.820;4.884;2022-08-07T00:48:19;36.13;;;34.13;;
15905;SDS011;8051;50.820;4.884;2022-08-07T00:50:46;38.47;;;36.37;;
15905;SDS011;8051;50.820;4.884;2022-08-07T00:53:13;36.70;;;34.90;;
15905;SDS011;8051;50.820;4.884;2022-08-07T00:55:41;36.53;;;34.70;;
15905;SDS011;8051;50.820;4.884;2022-08-07T00:58:08;37.77;;;35.87;;
15905;SDS011;8051;50.820;4.884;2022-08-07T01:00:35;35.63;;;33.93;;
15905;SDS011;8051;50.820;4.884;2022-08-07T01:03:02;34.33;;;32.73;;
15905;SDS011;8051;50.820;4.884;2022-08-07T01:05:29;33.43;;;31.83;;
15905;SDS011;8051;50.820;4.884;2022-08-07T01:07:58;32.37;;;30.70;;
15905;SDS011;8051;50.820;4.884;2022-08-07T01:10:24;31.87;;;30.20;;
15905;SDS011;8051;50.820;4.884;2022-08-07T01:12:53;31.77;;;29.97;;
15905;SDS011;8051;50.820;4.884;2022-08-07T01:15:21;30.40;;;28.63;;
15905;SDS011;8051;50.820;4.884;2022-08-07T01:17:49;29.60;;;27.80;;
15905;SDS011;8051;50.820;4.884;2022-08-07T01:20:16;28.23;;;26.90;;
15905;SDS011;8051;50.820;4.884;2022-08-07T01:22:52;28.73;;;27.10;;
15905;SDS011;8051;50.820;4.884;2022-08-07T01:25:20;29.13;;;27.63;;
15905;SDS011;8051;50.820;4.884;2022-08-07T01:27:47;30.53;;;28.83;;
15905;SDS011;8051;50.820;4.884;2022-08-07T01:30:14;30.33;;;28.40;;
15905;SDS011;8051;50.820;4.884;2022-08-07T01:32:42;31.00;;;29.13;;
15905;SDS011;8051;50.820;4.884;2022-08-07T01:35:09;30.17;;;28.57;;
15905;SDS011;8051;50.820;4.884;2022-08-07T01:37:36;30.43;;;28.73;;
15905;SDS011;8051;50.820;4.884;2022-08-07T01:40:06;29.60;;;28.10;;
15905;SDS011;8051;50.820;4.884;2022-08-07T01:42:34;32.17;;;30.17;;
15905;SDS011;8051;50.820;4.884;2022-08-07T01:45:02;32.33;;;30.50;;
15905;SDS011;8051;50.820;4.884;2022-08-07T01:47:30;33.23;;;31.53;;
15905;SDS011;8051;50.820;4.884;2022-08-07T01:49:57;32.03;;;30.23;;
15905;SDS011;8051;50.820;4.884;2022-08-07T01:52:24;32.43;;;30.50;;
15905;SDS011;8051;50.820;4.884;2022-08-07T01:54:51;31.70;;;30.10;;
15905;SDS011;8051;50.820;4.884;2022-08-07T01:57:24;29.23;;;27.60;;
15905;SDS011;8051;50.820;4.884;2022-08-07T01:59:55;28.50;;;26.90;;
15905;SDS011;8051;50.820;4.884;2022-08-07T02:02:28;28.53;;;27.03;;
15905;SDS011;8051;50.820;4.884;2022-08-07T02:04:59;27.70;;;26.30;;
15905;SDS011;8051;50.820;4.884;2022-08-07T02:07:31;29.00;;;27.37;;
15905;SDS011;8051;50.820;4.884;2022-08-07T02:10:05;27.33;;;25.93;;
15905;SDS011;8051;50.820;4.884;2022-08-07T02:12:36;28.50;;;26.73;;
15905;SDS011;8051;50.820;4.884;2022-08-07T02:15:06;27.93;;;26.17;;
15905;SDS011;8051;50.820;4.884;2022-08-07T02:17:34;29.27;;;27.57;;
15905;SDS011;8051;50.820;4.884;2022-08-07T02:20:03;29.73;;;28.13;;
15905;SDS011;8051;50.820;4.884;2022-08-07T02:22:31;30.60;;;28.87;;
15905;SDS011;8051;50.820;4.884;2022-08-07T02:25:00;29.47;;;27.87;;
15905;SDS011;8051;50.820;4.884;2022-08-07T02:27:30;27.73;;;26.30;;
15905;SDS011;8051;50.820;4.884;2022-08-07T02:30:00;26.67;;;25.37;;
15905;SDS011;8051;50.820;4.884;2022-08-07T02:32:28;27.23;;;25.53;;
15905;SDS011;8051;50.820;4.884;2022-08-07T02:34:57;28.63;;;26.37;;
15905;SDS011;8051;50.820;4.884;2022-08-07T02:37:24;30.70;;;29.00;;
15905;SDS011;8051;50.820;4.884;2022-08-07T02:39:52;30.87;;;29.27;;
15905;SDS011;8051;50.820;4.884;2022-08-07T02:42:25;31.30;;;29.63;;
15905;SDS011;8051;50.820;4.884;2022-08-07T02:44:52;34.17;;;32.17;;
15905;SDS011;8051;50.820;4.884;2022-08-07T02:47:22;34.90;;;32.83;;
15905;SDS011;8051;50.820;4.884;2022-08-07T02:49:49;34.20;;;32.20;;
15905;SDS011;8051;50.820;4.884;2022-08-07T02:52:18;34.07;;;32.17;;
15905;SDS011;8051;50.820;4.884;2022-08-07T02:54:49;35.53;;;33.00;;
15905;SDS011;8051;50.820;4.884;2022-08-07T02:57:17;34.60;;;32.70;;
15905;SDS011;8051;50.820;4.884;2022-08-07T02:59:48;34.63;;;32.53;;
15905;SDS011;8051;50.820;4.884;2022-08-07T03:02:17;34.30;;;32.30;;
15905;SDS011;8051;50.820;4.884;2022-08-07T03:04:45;33.47;;;31.67;;
15905;SDS011;8051;50.820;4.884;2022-08-07T03:07:13;34.57;;;32.70;;
15905;SDS011;8051;50.820;4.884;2022-08-07T03:09:42;34.07;;;32.13;;
15905;SDS011;8051;50.820;4.884;2022-08-07T03:12:12;34.43;;;32.33;;
15905;SDS011;8051;50.820;4.884;2022-08-07T03:14:40;35.53;;;33.50;;
15905;SDS011;8051;50.820;4.884;2022-08-07T03:17:09;34.27;;;32.27;;
15905;SDS011;8051;50.820;4.884;2022-08-07T03:19:37;31.93;;;29.97;;
15905;SDS011;8051;50.820;4.884;2022-08-07T03:22:06;33.33;;;31.43;;
15905;SDS011;8051;50.820;4.884;2022-08-07T03:24:33;30.77;;;28.97;;
15905;SDS011;8051;50.820;4.884;2022-08-07T03:27:01;33.53;;;31.37;;
15905;SDS011;8051;50.820;4.884;2022-08-07T03:29:31;35.33;;;33.43;;
15905;SDS011;8051;50.820;4.884;2022-08-07T03:32:00;36.30;;;34.30;;
15905;SDS011;8051;50.820;4.884;2022-08-07T03:34:30;38.07;;;35.67;;
15905;SDS011;8051;50.820;4.884;2022-08-07T03:36:59;36.27;;;34.17;;
15905;SDS011;8051;50.820;4.884;2022-08-07T03:39:29;37.80;;;35.50;;
15905;SDS011;8051;50.820;4.884;2022-08-07T03:42:00;39.00;;;36.50;;
15905;SDS011;8051;50.820;4.884;2022-08-07T03:44:29;37.80;;;35.70;;
15905;SDS011;8051;50.820;4.884;2022-08-07T03:46:57;48.60;;;46.03;;
15905;SDS011;8051;50.820;4.884;2022-08-07T03:49:24;45.00;;;42.50;;
15905;SDS011;8051;50.820;4.884;2022-08-07T03:51:51;42.43;;;40.13;;
15905;SDS011;8051;50.820;4.884;2022-08-07T03:54:20;45.93;;;43.63;;
15905;SDS011;8051;50.820;4.884;2022-08-07T03:56:48;42.20;;;39.70;;
15905;SDS011;8051;50.820;4.884;2022-08-07T03:59:16;43.37;;;40.97;;
15905;SDS011;8051;50.820;4.884;2022-08-07T04:01:44;59.33;;;56.07;;
15905;SDS011;8051;50.820;4.884;2022-08-07T04:04:11;47.93;;;45.40;;
15905;SDS011;8051;50.820;4.884;2022-08-07T04:06:42;49.33;;;46.53;;
15905;SDS011;8051;50.820;4.884;2022-08-07T04:09:09;47.57;;;45.07;;
15905;SDS011;8051;50.820;4.884;2022-08-07T04:11:39;45.43;;;42.90;;
15905;SDS011;8051;50.820;4.884;2022-08-07T04:14:07;46.43;;;43.97;;
15905;SDS011;8051;50.820;4.884;2022-08-07T04:16:36;58.10;;;54.93;;
15905;SDS011;8051;50.820;4.884;2022-08-07T04:19:03;59.17;;;56.07;;
15905;SDS011;8051;50.820;4.884;2022-08-07T04:21:32;66.00;;;62.63;;
15905;SDS011;8051;50.820;4.884;2022-08-07T04:23:59;66.77;;;62.83;;
15905;SDS011;8051;50.820;4.884;2022-08-07T04:26:27;66.83;;;63.23;;
15905;SDS011;8051;50.820;4.884;2022-08-07T04:28:54;67.73;;;64.30;;
15905;SDS011;8051;50.820;4.884;2022-08-07T04:31:23;67.27;;;63.63;;
15905;SDS011;8051;50.820;4.884;2022-08-07T04:33:51;67.03;;;63.63;;
15905;SDS011;8051;50.820;4.884;2022-08-07T04:36:18;64.90;;;61.57;;
15905;SDS011;8051;50.820;4.884;2022-08-07T04:38:45;68.90;;;65.27;;
15905;SDS011;8051;50.820;4.884;2022-08-07T04:41:12;45.80;;;43.07;;
15905;SDS011;8051;50.820;4.884;2022-08-07T04:43:39;31.43;;;29.67;;
15905;SDS011;8051;50.820;4.884;2022-08-07T04:46:09;33.43;;;31.53;;
15905;SDS011;8051;50.820;4.884;2022-08-07T04:48:43;35.93;;;33.67;;
15905;SDS011;8051;50.820;4.884;2022-08-07T04:51:23;32.00;;;30.20;;
15905;SDS011;8051;50.820;4.884;2022-08-07T04:53:58;31.83;;;30.07;;
15905;SDS011;8051;50.820;4.884;2022-08-07T04:56:30;30.27;;;28.33;;
15905;SDS011;8051;50.820;4.884;2022-08-07T04:59:04;31.53;;;29.83;;
15905;SDS011;8051;50.820;4.884;2022-08-07T05:01:38;30.23;;;28.73;;
15905;SDS011;8051;50.820;4.884;2022-08-07T05:04:10;33.77;;;31.97;;
15905;SDS011;8051;50.820;4.884;2022-08-07T05:06:42;34.27;;;32.40;;
15905;SDS011;8051;50.820;4.884;2022-08-07T05:09:19;31.67;;;29.93;;
15905;SDS011;8051;50.820;4.884;2022-08-07T05:11:51;31.50;;;29.70;;
15905;SDS011;8051;50.820;4.884;2022-08-07T05:14:19;28.23;;;26.43;;
15905;SDS011;8051;50.820;4.884;2022-08-07T05:16:51;25.50;;;23.87;;
15905;SDS011;8051;50.820;4.884;2022-08-07T05:19:24;24.47;;;23.03;;
15905;SDS011;8051;50.820;4.884;2022-08-07T05:21:54;23.47;;;22.03;;
15905;SDS011;8051;50.820;4.884;2022-08-07T05:24:24;21.53;;;20.10;;
15905;SDS011;8051;50.820;4.884;2022-08-07T05:26:54;22.23;;;20.90;;
15905;SDS011;8051;50.820;4.884;2022-08-07T05:29:25;18.43;;;17.23;;
15905;SDS011;8051;50.820;4.884;2022-08-07T05:31:53;18.83;;;17.63;;
15905;SDS011;8051;50.820;4.884;2022-08-07T05:34:21;15.63;;;14.33;;
15905;SDS011;8051;50.820;4.884;2022-08-07T05:36:52;13.63;;;12.63;;
15905;SDS011;8051;50.820;4.884;2022-08-07T05:39:20;11.50;;;10.60;;
15905;SDS011;8051;50.820;4.884;2022-08-07T05:41:48;12.23;;;10.37;;
15905;SDS011;8051;50.820;4.884;2022-08-07T05:44:17;13.23;;;12.23;;
15905;SDS011;8051;50.820;4.884;2022-08-07T05:46:46;13.27;;;12.37;;
15905;SDS011;8051;50.820;4.884;2022-08-07T05:49:14;12.60;;;11.47;;
15905;SDS011;8051;50.820;4.884;2022-08-07T05:51:44;11.90;;;10.80;;
15905;SDS011;8051;50.820;4.884;2022-08-07T05:54:12;12.80;;;11.70;;
15905;SDS011;8051;50.820;4.884;2022-08-07T05:56:39;12.57;;;11.67;;
15905;SDS011;8051;50.820;4.884;2022-08-07T05:59:10;12.77;;;11.77;;
15905;SDS011;8051;50.820;4.884;2022-08-07T06:01:40;13.67;;;12.77;;
15905;SDS011;8051;50.820;4.884;2022-08-07T06:04:07;11.90;;;10.73;;
15905;SDS011;8051;50.820;4.884;2022-08-07T06:06:35;11.90;;;11.10;;
15905;SDS011;8051;50.820;4.884;2022-08-07T06:09:04;13.30;;;11.10;;
15905;SDS011;8051;50.820;4.884;2022-08-07T06:11:32;12.90;;;11.80;;
15905;SDS011;8051;50.820;4.884;2022-08-07T06:14:00;12.97;;;11.97;;
15905;SDS011;8051;50.820;4.884;2022-08-07T06:16:30;13.27;;;11.93;;
15905;SDS011;8051;50.820;4.884;2022-08-07T06:18:58;15.80;;;14.37;;
15905;SDS011;8051;50.820;4.884;2022-08-07T06:21:26;17.60;;;16.40;;
15905;SDS011;8051;50.820;4.884;2022-08-07T06:23:54;21.40;;;20.10;;
15905;SDS011;8051;50.820;4.884;2022-08-07T06:26:22;24.10;;;22.50;;
15905;SDS011;8051;50.820;4.884;2022-08-07T06:28:50;24.97;;;23.27;;
15905;SDS011;8051;50.820;4.884;2022-08-07T06:31:18;25.13;;;23.67;;
15905;SDS011;8051;50.820;4.884;2022-08-07T06:33:46;26.90;;;25.10;;
15905;SDS011;8051;50.820;4.884;2022-08-07T06:36:13;23.87;;;22.37;;
15905;SDS011;8051;50.820;4.884;2022-08-07T06:38:42;24.17;;;22.07;;
15905;SDS011;8051;50.820;4.884;2022-08-07T06:41:10;25.43;;;23.63;;
15905;SDS011;8051;50.820;4.884;2022-08-07T06:43:42;22.27;;;20.97;;
15905;SDS011;8051;50.820;4.884;2022-08-07T06:46:11;19.50;;;18.37;;
15905;SDS011;8051;50.820;4.884;2022-08-07T06:48:41;21.87;;;20.13;;
15905;SDS011;8051;50.820;4.884;2022-08-07T06:51:09;20.27;;;19.07;;
15905;SDS011;8051;50.820;4.884;2022-08-07T06:53:40;18.20;;;16.83;;
15905;SDS011;8051;50.820;4.884;2022-08-07T06:56:09;17.23;;;16.07;;
15905;SDS011;8051;50.820;4.884;2022-08-07T06:58:42;16.53;;;15.43;;
15905;SDS011;8051;50.820;4.884;2022-08-07T07:01:11;15.53;;;14.30;;
15905;SDS011;8051;50.820;4.884;2022-08-07T07:03:40;14.70;;;13.70;;
15905;SDS011;8051;50.820;4.884;2022-08-07T07:06:07;16.10;;;15.00;;
15905;SDS011;8051;50.820;4.884;2022-08-07T07:08:35;14.43;;;13.40;;
15905;SDS011;8051;50.820;4.884;2022-08-07T07:11:02;14.10;;;13.07;;
15905;SDS011;8051;50.820;4.884;2022-08-07T07:13:30;14.43;;;13.43;;
15905;SDS011;8051;50.820;4.884;2022-08-07T07:16:04;14.60;;;13.50;;
15905;SDS011;8051;50.820;4.884;2022-08-07T07:18:38;16.40;;;14.47;;
15905;SDS011;8051;50.820;4.884;2022-08-07T07:21:09;15.03;;;13.57;;
15905;SDS011;8051;50.820;4.884;2022-08-07T07:23:40;14.90;;;13.47;;
15905;SDS011;8051;50.820;4.884;2022-08-07T07:26:10;13.30;;;12.33;;
15905;SDS011;8051;50.820;4.884;2022-08-07T07:28:42;13.23;;;12.33;;
15905;SDS011;8051;50.820;4.884;2022-08-07T07:31:17;13.30;;;12.40;;
15905;SDS011;8051;50.820;4.884;2022-08-07T07:33:49;12.17;;;11.27;;
15905;SDS011;8051;50.820;4.884;2022-08-07T07:36:23;12.63;;;11.57;;
15905;SDS011;8051;50.820;4.884;2022-08-07T07:38:50;12.93;;;11.83;;
15905;SDS011;8051;50.820;4.884;2022-08-07T07:41:18;12.20;;;11.30;;
15905;SDS011;8051;50.820;4.884;2022-08-07T07:43:47;13.87;;;12.77;;
15905;SDS011;8051;50.820;4.884;2022-08-07T07:46:18;10.73;;;9.90;;
15905;SDS011;8051;50.820;4.884;2022-08-07T07:48:47;12.73;;;11.83;;
15905;SDS011;8051;50.820;4.884;2022-08-07T07:51:16;10.53;;;9.73;;
15905;SDS011;8051;50.820;4.884;2022-08-07T07:53:45;11.87;;;10.60;;
15905;SDS011;8051;50.820;4.884;2022-08-07T07:56:13;12.87;;;11.77;;
15905;SDS011;8051;50.820;4.884;2022-08-07T07:58:42;11.03;;;10.33;;
15905;SDS011;8051;50.820;4.884;2022-08-07T08:01:09;10.83;;;10.13;;
15905;SDS011;8051;50.820;4.884;2022-08-07T08:03:38;16.03;;;10.93;;
15905;SDS011;8051;50.820;4.884;2022-08-07T08:06:08;11.50;;;10.37;;
15905;SDS011;8051;50.820;4.884;2022-08-07T08:08:37;12.43;;;11.53;;
15905;SDS011;8051;50.820;4.884;2022-08-07T08:11:08;10.67;;;9.87;;
15905;SDS011;8051;50.820;4.884;2022-08-07T08:13:37;10.93;;;10.17;;
15905;SDS011;8051;50.820;4.884;2022-08-07T08:16:07;9.70;;;9.10;;
15905;SDS011;8051;50.820;4.884;2022-08-07T08:18:34;12.40;;;11.30;;
15905;SDS011;8051;50.820;4.884;2022-08-07T08:21:03;12.17;;;11.17;;
15905;SDS011;8051;50.820;4.884;2022-08-07T08:23:51;13.10;;;12.27;;
15905;SDS011;8051;50.820;4.884;2022-08-07T08:26:36;12.20;;;11.50;;
15905;SDS011;8051;50.820;4.884;2022-08-07T08:29:20;12.70;;;11.90;;
15905;SDS011;8051;50.820;4.884;2022-08-07T08:31:48;12.97;;;12.03;;
15905;SDS011;8051;50.820;4.884;2022-08-07T08:34:16;12.57;;;11.77;;
15905;SDS011;8051;50.820;4.884;2022-08-07T08:36:48;12.90;;;12.10;;
15905;SDS011;8051;50.820;4.884;2022-08-07T08:39:16;13.63;;;12.53;;
15905;SDS011;8051;50.820;4.884;2022-08-07T08:41:45;11.00;;;10.40;;
15905;SDS011;8051;50.820;4.884;2022-08-07T08:44:16;13.03;;;12.13;;
15905;SDS011;8051;50.820;4.884;2022-08-07T08:46:53;11.20;;;10.50;;
15905;SDS011;8051;50.820;4.884;2022-08-07T08:49:31;11.87;;;11.17;;
15905;SDS011;8051;50.820;4.884;2022-08-07T08:52:06;10.97;;;10.27;;
15905;SDS011;8051;50.820;4.884;2022-08-07T08:54:40;11.57;;;10.77;;
15905;SDS011;8051;50.820;4.884;2022-08-07T08:57:13;10.73;;;10.13;;
15905;SDS011;8051;50.820;4.884;2022-08-07T08:59:49;11.57;;;10.77;;
15905;SDS011;8051;50.820;4.884;2022-08-07T09:02:25;11.50;;;10.63;;
15905;SDS011;8051;50.820;4.884;2022-08-07T09:05:04;11.00;;;10.20;;
15905;SDS011;8051;50.820;4.884;2022-08-07T09:07:50;10.47;;;9.67;;
15905;SDS011;8051;50.820;4.884;2022-08-07T09:10:22;11.47;;;10.40;;
15905;SDS011;8051;50.820;4.884;2022-08-07T09:12:55;8.67;;;8.27;;
15905;SDS011;8051;50.820;4.884;2022-08-07T09:15:35;8.10;;;7.60;;
15905;SDS011;8051;50.820;4.884;2022-08-07T09:18:13;9.43;;;8.83;;
15905;SDS011;8051;50.820;4.884;2022-08-07T09:20:47;9.83;;;9.23;;
15905;SDS011;8051;50.820;4.884;2022-08-07T09:23:29;8.80;;;8.13;;
15905;SDS011;8051;50.820;4.884;2022-08-07T09:26:09;8.30;;;7.80;;
15905;SDS011;8051;50.820;4.884;2022-08-07T09:28:43;8.53;;;8.00;;
15905;SDS011;8051;50.820;4.884;2022-08-07T09:31:19;8.70;;;8.00;;
15905;SDS011;8051;50.820;4.884;2022-08-07T09:34:00;9.20;;;8.50;;
15905;SDS011;8051;50.820;4.884;2022-08-07T09:36:38;9.00;;;8.40;;
15905;SDS011;8051;50.820;4.884;2022-08-07T09:39:15;8.07;;;7.67;;
15905;SDS011;8051;50.820;4.884;2022-08-07T09:41:58;7.77;;;7.37;;
15905;SDS011;8051;50.820;4.884;2022-08-07T09:44:33;9.73;;;9.10;;
15905;SDS011;8051;50.820;4.884;2022-08-07T09:47:14;7.50;;;6.90;;
15905;SDS011;8051;50.820;4.884;2022-08-07T09:49:51;7.17;;;6.77;;
15905;SDS011;8051;50.820;4.884;2022-08-07T09:52:24;8.13;;;7.50;;
15905;SDS011;8051;50.820;4.884;2022-08-07T09:55:03;8.60;;;7.87;;
15905;SDS011;8051;50.820;4.884;2022-08-07T09:57:48;8.07;;;7.50;;
15905;SDS011;8051;50.820;4.884;2022-08-07T10:00:49;7.40;;;7.00;;
15905;SDS011;8051;50.820;4.884;2022-08-07T10:03:37;8.33;;;7.63;;
15905;SDS011;8051;50.820;4.884;2022-08-07T10:06:21;7.67;;;7.27;;
15905;SDS011;8051;50.820;4.884;2022-08-07T10:09:12;7.70;;;7.30;;
15905;SDS011;8051;50.820;4.884;2022-08-07T10:11:50;8.70;;;8.13;;
15905;SDS011;8051;50.820;4.884;2022-08-07T10:14:34;8.50;;;8.10;;
15905;SDS011;8051;50.820;4.884;2022-08-07T10:17:26;6.73;;;6.23;;
15905;SDS011;8051;50.820;4.884;2022-08-07T10:20:07;6.80;;;6.50;;
15905;SDS011;8051;50.820;4.884;2022-08-07T10:22:45;8.33;;;7.73;;
15905;SDS011;8051;50.820;4.884;2022-08-07T10:25:35;7.33;;;6.83;;
15905;SDS011;8051;50.820;4.884;2022-08-07T10:28:22;7.37;;;6.93;;
15905;SDS011;8051;50.820;4.884;2022-08-07T10:31:04;7.50;;;7.10;;
15905;SDS011;8051;50.820;4.884;2022-08-07T10:33:47;7.97;;;7.47;;
15905;SDS011;8051;50.820;4.884;2022-08-07T10:36:27;7.23;;;6.83;;
15905;SDS011;8051;50.820;4.884;2022-08-07T10:39:09;7.53;;;7.07;;
15905;SDS011;8051;50.820;4.884;2022-08-07T10:41:52;7.07;;;6.70;;
15905;SDS011;8051;50.820;4.884;2022-08-07T10:44:44;7.30;;;6.90;;
15905;SDS011;8051;50.820;4.884;2022-08-07T10:47:19;8.27;;;7.87;;
15905;SDS011;8051;50.820;4.884;2022-08-07T10:49:57;7.37;;;6.97;;
15905;SDS011;8051;50.820;4.884;2022-08-07T10:52:31;7.33;;;6.80;;
15905;SDS011;8051;50.820;4.884;2022-08-07T10:55:06;8.47;;;7.87;;
15905;SDS011;8051;50.820;4.884;2022-08-07T10:57:41;7.87;;;7.37;;
15905;SDS011;8051;50.820;4.884;2022-08-07T11:00:14;9.17;;;8.40;;
15905;SDS011;8051;50.820;4.884;2022-08-07T11:02:43;8.10;;;7.70;;
15905;SDS011;8051;50.820;4.884;2022-08-07T11:05:27;8.10;;;7.70;;
15905;SDS011;8051;50.820;4.884;2022-08-07T11:08:08;8.57;;;8.07;;
15905;SDS011;8051;50.820;4.884;2022-08-07T11:10:44;8.90;;;8.20;;
15905;SDS011;8051;50.820;4.884;2022-08-07T11:13:17;7.87;;;7.47;;
15905;SDS011;8051;50.820;4.884;2022-08-07T11:15:51;8.00;;;7.40;;
15905;SDS011;8051;50.820;4.884;2022-08-07T11:18:24;9.20;;;8.80;;
15905;SDS011;8051;50.820;4.884;2022-08-07T11:21:01;8.27;;;7.87;;
15905;SDS011;8051;50.820;4.884;2022-08-07T11:23:35;8.90;;;8.40;;
15905;SDS011;8051;50.820;4.884;2022-08-07T11:26:12;9.50;;;9.00;;
15905;SDS011;8051;50.820;4.884;2022-08-07T11:28:45;9.60;;;9.00;;
15905;SDS011;8051;50.820;4.884;2022-08-07T11:31:21;9.27;;;8.67;;
15905;SDS011;8051;50.820;4.884;2022-08-07T11:33:56;8.80;;;8.23;;
15905;SDS011;8051;50.820;4.884;2022-08-07T11:36:34;9.43;;;8.60;;
15905;SDS011;8051;50.820;4.884;2022-08-07T11:39:08;8.17;;;7.77;;
15905;SDS011;8051;50.820;4.884;2022-08-07T11:41:54;7.70;;;7.20;;
15905;SDS011;8051;50.820;4.884;2022-08-07T11:44:27;8.70;;;8.30;;
15905;SDS011;8051;50.820;4.884;2022-08-07T11:47:07;8.27;;;7.87;;
15905;SDS011;8051;50.820;4.884;2022-08-07T11:49:50;8.43;;;7.93;;
15905;SDS011;8051;50.820;4.884;2022-08-07T11:52:49;8.50;;;7.90;;
15905;SDS011;8051;50.820;4.884;2022-08-07T11:55:30;8.47;;;7.87;;
15905;SDS011;8051;50.820;4.884;2022-08-07T11:58:13;8.57;;;8.17;;
15905;SDS011;8051;50.820;4.884;2022-08-07T12:00:47;8.97;;;8.37;;
15905;SDS011;8051;50.820;4.884;2022-08-07T12:03:35;8.83;;;8.33;;
15905;SDS011;8051;50.820;4.884;2022-08-07T12:06:31;8.20;;;7.80;;
15905;SDS011;8051;50.820;4.884;2022-08-07T12:09:08;9.73;;;9.10;;
15905;SDS011;8051;50.820;4.884;2022-08-07T12:11:41;8.40;;;8.00;;
15905;SDS011;8051;50.820;4.884;2022-08-07T12:14:12;8.87;;;8.47;;
15905;SDS011;8051;50.820;4.884;2022-08-07T12:16:45;7.97;;;7.57;;
15905;SDS011;8051;50.820;4.884;2022-08-07T12:19:19;9.93;;;9.13;;
15905;SDS011;8051;50.820;4.884;2022-08-07T12:21:56;9.70;;;9.30;;
15905;SDS011;8051;50.820;4.884;2022-08-07T12:24:30;9.17;;;8.77;;
15905;SDS011;8051;50.820;4.884;2022-08-07T12:27:03;9.10;;;8.50;;
15905;SDS011;8051;50.820;4.884;2022-08-07T12:29:37;9.00;;;8.50;;
15905;SDS011;8051;50.820;4.884;2022-08-07T12:32:10;9.43;;;8.93;;
15905;SDS011;8051;50.820;4.884;2022-08-07T12:34:42;9.50;;;8.90;;
15905;SDS011;8051;50.820;4.884;2022-08-07T12:37:11;9.87;;;9.37;;
15905;SDS011;8051;50.820;4.884;2022-08-07T12:39:40;9.30;;;8.90;;
15905;SDS011;8051;50.820;4.884;2022-08-07T12:42:09;8.20;;;7.80;;
15905;SDS011;8051;50.820;4.884;2022-08-07T12:44:38;8.63;;;8.23;;
15905;SDS011;8051;50.820;4.884;2022-08-07T12:47:09;8.73;;;8.23;;
15905;SDS011;8051;50.820;4.884;2022-08-07T12:49:49;9.03;;;8.53;;
15905;SDS011;8051;50.820;4.884;2022-08-07T12:52:25;9.40;;;8.80;;
15905;SDS011;8051;50.820;4.884;2022-08-07T12:55:01;9.53;;;9.00;;
15905;SDS011;8051;50.820;4.884;2022-08-07T12:57:34;10.10;;;9.50;;
15905;SDS011;8051;50.820;4.884;2022-08-07T13:00:05;8.73;;;8.27;;
15905;SDS011;8051;50.820;4.884;2022-08-07T13:02:45;9.20;;;8.70;;
15905;SDS011;8051;50.820;4.884;2022-08-07T13:05:30;8.13;;;7.67;;
15905;SDS011;8051;50.820;4.884;2022-08-07T13:08:11;8.73;;;8.23;;
15905;SDS011;8051;50.820;4.884;2022-08-07T13:10:48;9.73;;;9.20;;
15905;SDS011;8051;50.820;4.884;2022-08-07T13:13:30;7.93;;;7.40;;
15905;SDS011;8051;50.820;4.884;2022-08-07T13:16:04;9.80;;;9.30;;
15905;SDS011;8051;50.820;4.884;2022-08-07T13:18:42;8.53;;;8.13;;
15905;SDS011;8051;50.820;4.884;2022-08-07T13:21:17;9.50;;;8.90;;
15905;SDS011;8051;50.820;4.884;2022-08-07T13:23:47;10.10;;;9.60;;
15905;SDS011;8051;50.820;4.884;2022-08-07T13:26:19;10.73;;;10.03;;
15905;SDS011;8051;50.820;4.884;2022-08-07T13:28:54;9.93;;;9.43;;
15905;SDS011;8051;50.820;4.884;2022-08-07T13:31:28;10.40;;;9.80;;
15905;SDS011;8051;50.820;4.884;2022-08-07T13:34:02;10.20;;;9.70;;
15905;SDS011;8051;50.820;4.884;2022-08-07T13:36:41;9.23;;;8.83;;
15905;SDS011;8051;50.820;4.884;2022-08-07T13:39:14;11.07;;;10.40;;
15905;SDS011;8051;50.820;4.884;2022-08-07T13:41:51;8.40;;;7.90;;
15905;SDS011;8051;50.820;4.884;2022-08-07T13:44:20;9.27;;;8.67;;
15905;SDS011;8051;50.820;4.884;2022-08-07T13:46:51;8.00;;;7.53;;
15905;SDS011;8051;50.820;4.884;2022-08-07T13:49:22;8.47;;;8.07;;
15905;SDS011;8051;50.820;4.884;2022-08-07T13:51:53;8.83;;;8.33;;
15905;SDS011;8051;50.820;4.884;2022-08-07T13:54:21;8.60;;;8.00;;
15905;SDS011;8051;50.820;4.884;2022-08-07T13:56:55;8.57;;;7.90;;
15905;SDS011;8051;50.820;4.884;2022-08-07T13:59:25;8.20;;;7.80;;
15905;SDS011;8051;50.820;4.884;2022-08-07T14:01:58;8.23;;;7.70;;
15905;SDS011;8051;50.820;4.884;2022-08-07T14:04:33;7.40;;;7.00;;
15905;SDS011;8051;50.820;4.884;2022-08-07T14:07:10;9.27;;;8.60;;
15905;SDS011;8051;50.820;4.884;2022-08-07T14:09:39;8.77;;;8.27;;
15905;SDS011;8051;50.820;4.884;2022-08-07T14:12:08;9.30;;;8.80;;
15905;SDS011;8051;50.820;4.884;2022-08-07T14:14:40;7.93;;;7.47;;
15905;SDS011;8051;50.820;4.884;2022-08-07T14:17:12;9.17;;;8.77;;
15905;SDS011;8051;50.820;4.884;2022-08-07T14:19:43;10.07;;;9.37;;
15905;SDS011;8051;50.820;4.884;2022-08-07T14:22:19;9.90;;;9.33;;
15905;SDS011;8051;50.820;4.884;2022-08-07T14:24:50;9.80;;;9.33;;
15905;SDS011;8051;50.820;4.884;2022-08-07T14:27:26;9.77;;;9.07;;
15905;SDS011;8051;50.820;4.884;2022-08-07T14:30:00;9.60;;;9.10;;
15905;SDS011;8051;50.820;4.884;2022-08-07T14:32:29;10.07;;;9.47;;
15905;SDS011;8051;50.820;4.884;2022-08-07T14:35:01;9.67;;;9.20;;
15905;SDS011;8051;50.820;4.884;2022-08-07T14:37:30;8.30;;;7.90;;
15905;SDS011;8051;50.820;4.884;2022-08-07T14:39:58;9.97;;;9.30;;
15905;SDS011;8051;50.820;4.884;2022-08-07T14:42:27;10.00;;;9.50;;
15905;SDS011;8051;50.820;4.884;2022-08-07T14:44:56;9.17;;;8.57;;
15905;SDS011;8051;50.820;4.884;2022-08-07T14:47:24;9.70;;;9.23;;
15905;SDS011;8051;50.820;4.884;2022-08-07T14:49:55;8.83;;;8.33;;
15905;SDS011;8051;50.820;4.884;2022-08-07T14:52:24;9.13;;;8.70;;
15905;SDS011;8051;50.820;4.884;2022-08-07T14:54:53;8.70;;;8.20;;
15905;SDS011;8051;50.820;4.884;2022-08-07T14:57:22;9.13;;;8.73;;
15905;SDS011;8051;50.820;4.884;2022-08-07T14:59:51;8.80;;;8.30;;
15905;SDS011;8051;50.820;4.884;2022-08-07T15:02:21;8.83;;;8.33;;
15905;SDS011;8051;50.820;4.884;2022-08-07T15:04:49;9.17;;;8.53;;
15905;SDS011;8051;50.820;4.884;2022-08-07T15:07:18;9.83;;;9.33;;
15905;SDS011;8051;50.820;4.884;2022-08-07T15:09:48;9.97;;;9.47;;
15905;SDS011;8051;50.820;4.884;2022-08-07T15:12:21;9.73;;;9.17;;
15905;SDS011;8051;50.820;4.884;2022-08-07T15:14:50;9.53;;;9.03;;